Time;durP1;ratioP1;P1;durP2;ratioP2;P2;SDS_P1;SDS_P2;PMS_P1;PMS_P2;Temp;Humidity;BMP_temperature;BMP_pressure;BME280_temperature;BME280_humidity;BME280_pressure;Samples;Min_cycle;Max_cycle;Signal;HPM_P1;HPM_P2
2022/10/07 00:00:58;;;;;;;12.93;2.58;;;9.70;84.50;;;;;;5052155;28;20031;-49
2022/10/07 00:03:26;;;;;;;7.30;2.13;;;9.70;84.70;;;;;;5053155;28;20056;-46
2022/10/07 00:06:06;;;;;;;12.85;2.10;;;9.70;84.40;;;;;;5046225;28;20792;-49
2022/10/07 00:08:37;;;;;;;8.02;2.08;;;9.80;84.50;;;;;;5038598;28;20033;-51
2022/10/07 00:11:10;;;;;;;7.75;1.77;;;9.70;84.30;;;;;;5031419;28;20025;-47
2022/10/07 00:13:39;;;;;;;5.57;1.88;;;9.70;84.40;;;;;;5051005;28;20068;-46
2022/10/07 00:16:12;;;;;;;8.73;1.67;;;9.70;84.40;;;;;;5035191;28;20034;-45
2022/10/07 00:18:40;;;;;;;8.68;2.75;;;9.70;84.50;;;;;;5047279;28;20040;-46
2022/10/07 00:21:10;;;;;;;11.18;2.05;;;9.70;84.50;;;;;;5053928;28;20568;-45
2022/10/07 00:23:37;;;;;;;;;;;9.70;84.30;;;;;;5053204;28;20354;-51
2022/10/07 00:26:06;;;;;;;7.10;1.83;;;9.60;84.50;;;;;;5033242;28;19912;-45
2022/10/07 00:28:34;;;;;;;9.35;2.13;;;9.70;84.50;;;;;;5047534;28;20074;-45
2022/10/07 00:31:06;;;;;;;14.55;2.22;;;9.60;84.40;;;;;;5052108;28;20036;-47
2022/10/07 00:33:36;;;;;;;4.95;1.80;;;9.60;84.60;;;;;;5047030;28;20481;-47
2022/10/07 00:36:08;;;;;;;9.68;1.90;;;9.60;84.70;;;;;;5046412;28;20029;-48
2022/10/07 00:38:35;;;;;;;7.07;1.98;;;9.60;84.60;;;;;;5047391;28;20449;-52
2022/10/07 00:41:06;;;;;;;4.80;1.48;;;9.60;84.80;;;;;;5032294;28;20104;-47
2022/10/07 00:43:33;;;;;;;7.03;1.40;;;9.70;84.80;;;;;;5034417;28;20049;-47
2022/10/07 00:46:28;;;;;;;8.98;2.17;;;9.60;84.70;;;;;;5053313;28;20032;-47
2022/10/07 00:48:58;;;;;;;7.63;1.98;;;9.60;84.60;;;;;;5039840;28;20030;-47
2022/10/07 00:51:25;;;;;;;8.05;2.28;;;9.50;84.50;;;;;;5049709;28;20079;-46
2022/10/07 00:53:55;;;;;;;7.65;2.13;;;9.50;84.60;;;;;;5043075;28;20066;-47
2022/10/07 00:56:25;;;;;;;7.05;2.85;;;9.50;84.60;;;;;;5053267;28;20035;-45
2022/10/07 00:58:51;;;;;;;8.23;2.10;;;9.50;84.70;;;;;;5042812;28;20029;-44
2022/10/07 01:01:19;;;;;;;8.35;1.88;;;9.50;84.80;;;;;;5043811;28;20115;-47
2022/10/07 01:03:48;;;;;;;6.88;2.25;;;9.50;84.70;;;;;;5046324;28;20025;-48
2022/10/07 01:06:17;;;;;;;10.27;2.67;;;9.50;84.80;;;;;;5044121;28;20029;-47
2022/10/07 01:08:46;;;;;;;9.27;2.22;;;9.50;85.00;;;;;;5052919;28;20454;-48
2022/10/07 01:11:36;;;;;;;11.43;2.88;;;9.50;85.00;;;;;;5053091;28;20344;-45
2022/10/07 01:14:17;;;;;;;8.50;2.42;;;9.50;84.80;;;;;;5045675;28;20036;-46
2022/10/07 01:16:59;;;;;;;11.85;2.95;;;9.50;84.90;;;;;;5051892;28;20020;-47
2022/10/07 01:19:43;;;;;;;8.27;3.17;;;9.50;84.80;;;;;;5051069;28;20043;-46
2022/10/07 01:22:39;;;;;;;7.78;2.30;;;9.50;84.80;;;;;;5049923;28;20041;-48
2022/10/07 01:25:25;;;;;;;13.32;3.20;;;9.40;84.90;;;;;;5052511;28;20020;-49
2022/10/07 01:28:04;;;;;;;15.27;2.60;;;9.50;84.90;;;;;;5051433;28;20029;-47
2022/10/07 01:30:35;;;;;;;5.63;1.75;;;9.50;84.90;;;;;;5053015;28;20017;-48
2022/10/07 01:33:06;;;;;;;9.73;3.10;;;9.50;84.90;;;;;;5045423;28;20025;-49
2022/10/07 01:35:36;;;;;;;6.05;2.15;;;9.50;84.60;;;;;;5036515;28;20038;-48
2022/10/07 01:38:06;;;;;;;10.25;2.85;;;9.50;84.70;;;;;;5031435;28;20104;-45
2022/10/07 01:40:51;;;;;;;10.50;2.80;;;9.50;84.70;;;;;;5032065;28;20362;-46
2022/10/07 01:43:20;;;;;;;5.78;2.10;;;9.40;84.30;;;;;;5035517;28;20099;-51
2022/10/07 01:45:47;;;;;;;9.45;2.42;;;9.50;84.90;;;;;;5035989;28;20037;-47
2022/10/07 01:48:16;;;;;;;11.10;2.17;;;9.40;84.50;;;;;;5031131;28;20363;-45
2022/10/07 01:50:49;;;;;;;12.65;2.83;;;9.40;84.80;;;;;;5019285;28;20021;-46
2022/10/07 01:53:48;;;;;;;9.57;2.75;;;9.50;84.80;;;;;;5035704;28;20029;-46
2022/10/07 01:56:51;;;;;;;7.00;2.30;;;9.40;84.70;;;;;;5036803;28;20022;-49
2022/10/07 01:59:28;;;;;;;10.23;3.70;;;9.40;84.70;;;;;;5031887;28;20030;-49
2022/10/07 02:02:15;;;;;;;10.73;2.42;;;9.40;84.80;;;;;;5034729;28;20063;-46
2022/10/07 02:05:05;;;;;;;10.05;2.55;;;9.40;84.80;;;;;;5030101;28;20030;-47
2022/10/07 02:08:08;;;;;;;7.72;1.90;;;9.40;84.70;;;;;;5028204;28;20043;-47
2022/10/07 02:10:58;;;;;;;7.95;2.90;;;9.30;84.70;;;;;;5035184;28;20104;-45
2022/10/07 02:13:55;;;;;;;8.85;2.50;;;9.30;84.70;;;;;;5019029;28;20032;-46
2022/10/07 02:16:28;;;;;;;6.05;2.60;;;9.30;84.90;;;;;;5014811;28;20044;-46
2022/10/07 02:18:57;;;;;;;6.10;2.50;;;9.40;85.00;;;;;;5012060;28;20427;-47
2022/10/07 02:21:27;;;;;;;10.52;2.70;;;9.40;84.70;;;;;;5017442;28;20062;-46
2022/10/07 02:23:56;;;;;;;11.05;2.85;;;9.30;84.80;;;;;;5016548;28;20062;-46
2022/10/07 02:26:28;;;;;;;8.18;2.70;;;9.40;84.80;;;;;;5034513;28;20029;-45
2022/10/07 02:28:57;;;;;;;9.95;3.28;;;9.30;84.80;;;;;;5014158;28;20026;-49
2022/10/07 02:31:29;;;;;;;10.63;3.07;;;9.30;84.90;;;;;;5008508;28;20029;-45
2022/10/07 02:33:59;;;;;;;10.43;2.72;;;9.30;84.80;;;;;;5029484;28;20017;-45
2022/10/07 02:36:33;;;;;;;6.57;2.17;;;9.40;84.90;;;;;;5022635;28;20805;-45
2022/10/07 02:39:01;;;;;;;8.52;2.83;;;9.40;84.80;;;;;;5016058;28;20367;-46
2022/10/07 02:41:40;;;;;;;10.13;3.55;;;9.40;84.80;;;;;;5030509;28;20029;-46
2022/10/07 02:44:36;;;;;;;13.05;3.95;;;9.40;84.60;;;;;;5026871;28;20064;-45
2022/10/07 02:47:15;;;;;;;5.78;2.83;;;9.40;84.60;;;;;;5035298;28;20025;-46
2022/10/07 02:49:44;;;;;;;12.23;3.92;;;9.40;84.60;;;;;;5026160;28;20032;-45
2022/10/07 02:52:17;;;;;;;14.23;3.22;;;9.40;84.60;;;;;;5033645;28;20064;-47
2022/10/07 02:54:59;;;;;;;9.60;2.90;;;9.40;84.90;;;;;;5010776;28;20026;-45
2022/10/07 02:57:30;;;;;;;8.85;3.33;;;9.30;84.80;;;;;;4991076;28;20087;-46
2022/10/07 03:00:00;;;;;;;9.18;3.38;;;9.30;84.90;;;;;;5033146;28;20033;-46
2022/10/07 03:02:37;;;;;;;10.50;3.45;;;9.30;85.00;;;;;;5035278;28;20065;-48
2022/10/07 03:05:06;;;;;;;7.97;2.50;;;9.30;85.20;;;;;;5026661;28;20343;-45
2022/10/07 03:07:34;;;;;;;;;;;9.30;85.10;;;;;;5018602;28;20120;-45
2022/10/07 03:10:02;;;;;;;9.45;2.90;;;9.30;85.20;;;;;;5016631;28;19913;-46
2022/10/07 03:12:32;;;;;;;11.52;3.15;;;9.30;85.20;;;;;;5017782;28;20049;-46
2022/10/07 03:14:59;;;;;;;8.95;3.28;;;9.30;85.20;;;;;;5027433;28;20086;-45
2022/10/07 03:17:27;;;;;;;7.22;2.72;;;9.40;85.10;;;;;;5021496;28;20469;-45
2022/10/07 03:19:54;;;;;;;8.15;2.85;;;9.30;85.20;;;;;;5015563;28;20030;-45
2022/10/07 03:22:19;;;;;;;10.48;3.13;;;9.30;85.00;;;;;;4999817;28;20096;-48
2022/10/07 03:24:46;;;;;;;7.03;2.72;;;9.30;85.10;;;;;;5011674;28;20446;-46
2022/10/07 03:27:13;;;;;;;9.98;3.33;;;9.20;85.10;;;;;;5024629;28;20463;-48
2022/10/07 03:29:40;;;;;;;7.03;3.05;;;9.30;85.40;;;;;;5030394;28;20032;-47
2022/10/07 03:32:06;;;;;;;12.63;2.97;;;9.30;85.30;;;;;;5012464;28;20026;-46
2022/10/07 03:34:33;;;;;;;14.45;3.63;;;9.20;85.40;;;;;;5041498;28;20094;-46
2022/10/07 03:37:00;;;;;;;11.45;3.33;;;9.20;85.30;;;;;;5053271;28;20076;-48
2022/10/07 03:39:27;;;;;;;14.02;3.33;;;9.20;85.40;;;;;;5054602;28;20462;-49
2022/10/07 03:41:55;;;;;;;7.00;2.85;;;9.20;85.30;;;;;;5054654;28;20033;-46
2022/10/07 03:44:24;;;;;;;5.72;3.15;;;9.20;85.50;;;;;;5052318;28;20039;-48
2022/10/07 03:46:51;;;;;;;12.05;3.30;;;9.20;85.30;;;;;;5053016;28;20032;-45
2022/10/07 03:49:19;;;;;;;8.93;3.00;;;9.20;85.50;;;;;;5053494;28;20025;-45
2022/10/07 03:51:46;;;;;;;11.77;3.92;;;9.10;85.60;;;;;;5053969;28;20025;-45
2022/10/07 03:54:15;;;;;;;9.93;2.85;;;9.20;85.60;;;;;;5034180;28;20031;-46
2022/10/07 03:56:44;;;;;;;8.93;3.20;;;9.10;85.60;;;;;;5053996;28;20032;-49
2022/10/07 03:59:11;;;;;;;9.88;4.22;;;9.00;85.60;;;;;;5052406;28;20033;-47
2022/10/07 04:01:38;;;;;;;9.50;3.00;;;9.10;85.80;;;;;;5051563;28;20037;-46
2022/10/07 04:04:06;;;;;;;11.77;3.83;;;9.00;85.70;;;;;;5050287;28;20430;-50
2022/10/07 04:06:37;;;;;;;11.85;4.18;;;9.00;85.80;;;;;;5043839;28;20025;-46
2022/10/07 04:09:04;;;;;;;13.07;3.08;;;9.00;86.00;;;;;;5053845;28;20503;-48
2022/10/07 04:11:30;;;;;;;8.93;3.38;;;8.90;85.80;;;;;;5053143;28;20021;-47
2022/10/07 04:13:59;;;;;;;11.23;3.78;;;8.90;86.00;;;;;;5052546;28;20048;-45
2022/10/07 04:16:27;;;;;;;10.93;3.20;;;8.90;86.10;;;;;;5054201;28;20327;-47
2022/10/07 04:18:56;;;;;;;10.63;3.17;;;8.90;86.20;;;;;;5052047;28;20394;-47
2022/10/07 04:21:22;;;;;;;8.50;3.38;;;8.90;86.20;;;;;;5052221;28;20496;-49
2022/10/07 04:23:49;;;;;;;12.35;4.18;;;8.90;86.20;;;;;;5016385;28;20037;-49
2022/10/07 04:26:18;;;;;;;15.73;3.67;;;8.90;86.10;;;;;;5029823;28;20104;-46
2022/10/07 04:28:44;;;;;;;13.13;3.47;;;8.90;86.10;;;;;;5052527;28;20037;-48
2022/10/07 04:31:11;;;;;;;9.77;4.15;;;8.90;86.00;;;;;;5031655;28;20026;-48
2022/10/07 04:33:39;;;;;;;11.32;3.25;;;8.90;86.00;;;;;;5043272;28;20021;-45
2022/10/07 04:36:08;;;;;;;11.35;3.88;;;8.90;86.00;;;;;;5053364;28;20104;-48
2022/10/07 04:38:35;;;;;;;7.70;3.35;;;8.90;86.00;;;;;;5051962;28;20508;-46
2022/10/07 04:41:06;;;;;;;13.20;3.40;;;8.90;86.30;;;;;;5053227;28;20083;-46
2022/10/07 04:43:33;;;;;;;10.63;3.83;;;8.90;86.40;;;;;;5049680;28;20021;-47
2022/10/07 04:46:03;;;;;;;9.88;3.97;;;8.90;86.30;;;;;;5034368;28;20086;-45
2022/10/07 04:48:31;;;;;;;12.55;3.83;;;8.80;86.30;;;;;;5050144;28;20087;-45
2022/10/07 04:51:02;;;;;;;13.77;4.25;;;8.80;86.30;;;;;;5053340;28;20059;-49
2022/10/07 04:53:30;;;;;;;12.10;3.60;;;8.80;86.60;;;;;;5033875;28;20037;-50
2022/10/07 04:55:58;;;;;;;13.85;4.18;;;8.70;86.60;;;;;;5052511;28;20029;-48
2022/10/07 04:58:26;;;;;;;9.77;3.45;;;8.80;86.60;;;;;;5053410;28;20480;-49
2022/10/07 05:00:56;;;;;;;9.48;3.53;;;8.70;86.70;;;;;;5028919;28;20041;-46
2022/10/07 05:03:29;;;;;;;13.00;3.83;;;8.70;86.70;;;;;;5022662;28;20060;-45
2022/10/07 05:06:04;;;;;;;12.68;4.55;;;8.70;86.70;;;;;;5051723;28;20112;-48
2022/10/07 05:08:34;;;;;;;8.52;3.92;;;8.70;87.10;;;;;;5050912;28;20061;-47
2022/10/07 05:11:02;;;;;;;9.82;4.28;;;8.70;86.90;;;;;;5048975;28;20021;-46
2022/10/07 05:13:33;;;;;;;9.38;4.22;;;8.60;86.90;;;;;;5051442;28;20036;-48
2022/10/07 05:16:00;;;;;;;9.40;4.20;;;8.60;87.10;;;;;;5052171;28;20488;-46
2022/10/07 05:18:29;;;;;;;9.30;3.80;;;8.60;87.20;;;;;;5050487;28;20041;-46
2022/10/07 05:20:56;;;;;;;11.40;4.70;;;8.60;87.10;;;;;;5045762;28;20088;-45
2022/10/07 05:23:24;;;;;;;12.10;5.68;;;8.60;87.10;;;;;;5051775;28;20108;-48
2022/10/07 05:26:06;;;;;;;7.25;4.05;;;8.50;87.20;;;;;;5025618;28;20029;-46
2022/10/07 05:28:34;;;;;;;12.82;4.25;;;8.60;87.40;;;;;;5050043;28;20465;-46
2022/10/07 05:31:04;;;;;;;10.82;4.40;;;8.60;87.40;;;;;;5052361;28;20021;-48
2022/10/07 05:33:31;;;;;;;12.30;5.05;;;8.60;87.50;;;;;;5028373;28;20029;-46
2022/10/07 05:35:58;;;;;;;11.85;4.20;;;8.60;87.40;;;;;;5031230;28;20038;-47
2022/10/07 05:38:24;;;;;;;17.33;5.28;;;8.50;87.50;;;;;;5052220;28;20059;-51
2022/10/07 05:41:02;;;;;;;10.75;4.32;;;8.60;87.70;;;;;;5052424;28;20470;-50
2022/10/07 05:43:32;;;;;;;12.10;4.55;;;8.60;87.80;;;;;;5032839;28;20108;-45
2022/10/07 05:46:18;;;;;;;;;;;8.60;87.90;;;;;;5032914;28;20028;-49
2022/10/07 05:48:47;;;;;;;11.93;4.10;;;8.60;88.00;;;;;;5033420;28;19921;-46
2022/10/07 05:51:14;;;;;;;16.65;5.22;;;8.60;87.90;;;;;;5051424;28;20041;-45
2022/10/07 05:53:41;;;;;;;9.20;4.20;;;8.60;88.00;;;;;;5049562;28;20048;-45
2022/10/07 05:56:11;;;;;;;12.75;4.00;;;8.70;88.00;;;;;;5051125;28;20708;-45
2022/10/07 05:58:38;;;;;;;13.57;4.63;;;8.70;88.10;;;;;;5052049;28;20033;-50
2022/10/07 06:01:07;;;;;;;16.52;4.88;;;8.70;88.10;;;;;;5051188;28;20373;-46
2022/10/07 06:03:36;;;;;;;16.10;4.72;;;8.70;88.10;;;;;;5050774;28;20053;-45
2022/10/07 06:06:05;;;;;;;19.92;4.72;;;8.70;88.00;;;;;;5052548;28;20408;-48
2022/10/07 06:08:31;;;;;;;13.30;5.17;;;8.70;88.30;;;;;;5052030;28;20086;-46
2022/10/07 06:13:50;;;;;;;16.80;4.38;;;8.70;88.20;;;;;;5050429;28;20047;-47
2022/10/07 06:16:17;;;;;;;13.10;5.18;;;8.80;88.30;;;;;;5045991;28;20501;-46
2022/10/07 06:18:43;;;;;;;15.30;4.40;;;8.80;88.40;;;;;;5050623;28;20160;-45
2022/10/07 06:21:10;;;;;;;16.92;5.05;;;8.80;88.40;;;;;;5049918;28;20112;-47
2022/10/07 06:23:37;;;;;;;15.75;4.65;;;8.80;88.30;;;;;;5050570;28;20021;-46
2022/10/07 06:26:11;;;;;;;13.05;4.25;;;8.90;88.40;;;;;;5050922;28;20041;-46
2022/10/07 06:28:41;;;;;;;13.48;4.82;;;8.90;88.40;;;;;;5050637;28;20067;-45
2022/10/07 06:31:13;;;;;;;12.60;4.75;;;8.90;88.60;;;;;;5054762;28;20040;-45
2022/10/07 06:33:40;;;;;;;20.08;7.68;;;9.00;88.80;;;;;;5036218;28;20063;-45
2022/10/07 06:36:11;;;;;;;14.20;4.85;;;9.00;88.80;;;;;;5049651;28;20451;-47
2022/10/07 06:38:42;;;;;;;10.85;4.40;;;9.10;88.60;;;;;;5032171;28;20037;-44
2022/10/07 06:41:09;;;;;;;10.77;3.83;;;9.10;88.50;;;;;;5055085;28;20073;-46
2022/10/07 06:43:36;;;;;;;14.32;4.63;;;9.10;88.50;;;;;;5033131;28;20608;-47
2022/10/07 06:46:12;;;;;;;16.50;4.00;;;9.20;88.70;;;;;;5052483;28;20029;-45
2022/10/07 06:48:41;;;;;;;19.50;4.55;;;9.20;88.70;;;;;;5036356;28;20515;-47
2022/10/07 06:51:13;;;;;;;17.50;4.95;;;9.20;88.80;;;;;;5045681;28;20472;-48
2022/10/07 06:53:40;;;;;;;10.75;4.95;;;9.30;88.60;;;;;;5037057;28;20037;-45
2022/10/07 06:56:07;;;;;;;12.77;3.90;;;9.30;88.70;;;;;;5054931;28;20028;-48
2022/10/07 06:58:34;;;;;;;12.05;5.18;;;9.40;88.70;;;;;;5035961;28;20029;-45
2022/10/07 07:01:04;;;;;;;19.83;4.75;;;9.40;88.60;;;;;;5036288;28;20450;-47
2022/10/07 07:03:31;;;;;;;;;;;9.40;88.70;;;;;;5035764;28;20021;-48
2022/10/07 07:05:58;;;;;;;16.70;4.50;;;9.50;88.80;;;;;;5054015;28;19920;-46
2022/10/07 07:08:27;;;;;;;13.45;4.30;;;9.60;88.70;;;;;;5053793;28;20029;-48
2022/10/07 07:10:55;;;;;;;11.68;4.70;;;9.60;88.50;;;;;;5059104;28;20029;-50
2022/10/07 07:13:22;;;;;;;12.95;4.57;;;9.70;88.50;;;;;;5053389;28;20544;-45
2022/10/07 07:15:58;;;;;;;15.68;4.57;;;9.70;88.60;;;;;;5053003;28;20031;-48
2022/10/07 07:18:25;;;;;;;19.38;4.95;;;9.80;88.50;;;;;;5052993;28;20032;-45
2022/10/07 07:20:51;;;;;;;16.23;5.55;;;9.90;88.50;;;;;;5054808;28;20025;-45
2022/10/07 07:23:20;;;;;;;14.52;5.18;;;9.90;88.50;;;;;;5053158;28;20029;-46
2022/10/07 07:25:49;;;;;;;12.70;4.20;;;10.00;88.20;;;;;;5036556;28;20125;-46
2022/10/07 07:28:16;;;;;;;17.15;4.20;;;10.10;88.30;;;;;;5057325;28;20386;-46
2022/10/07 07:30:44;;;;;;;12.90;4.68;;;10.20;88.30;;;;;;5033105;28;20342;-46
2022/10/07 07:33:15;;;;;;;15.95;4.97;;;10.40;88.10;;;;;;5051413;28;20036;-47
2022/10/07 07:35:44;;;;;;;14.27;5.15;;;10.50;87.80;;;;;;5050047;28;20139;-51
2022/10/07 07:38:11;;;;;;;16.88;4.93;;;10.80;87.40;;;;;;5034243;28;20784;-45
2022/10/07 07:40:38;;;;;;;14.23;4.25;;;11.00;86.70;;;;;;5016266;28;20466;-48
2022/10/07 07:43:06;;;;;;;15.13;4.10;;;11.20;86.40;;;;;;5037627;28;20032;-47
2022/10/07 07:45:35;;;;;;;12.93;4.13;;;11.50;85.90;;;;;;5053337;28;20029;-47
2022/10/07 07:48:01;;;;;;;14.98;3.83;;;11.80;85.00;;;;;;5053295;28;20037;-47
2022/10/07 07:50:27;;;;;;;18.48;4.78;;;12.00;84.10;;;;;;5054521;28;20033;-46
2022/10/07 07:52:54;;;;;;;17.55;3.78;;;12.30;83.50;;;;;;5052462;28;20090;-46
2022/10/07 07:55:22;;;;;;;20.10;5.35;;;12.50;82.80;;;;;;5054502;28;20021;-48
2022/10/07 07:57:49;;;;;;;12.43;4.60;;;12.70;82.70;;;;;;5053421;28;20095;-47
2022/10/07 08:00:16;;;;;;;17.50;5.32;;;12.90;82.40;;;;;;5050412;28;20041;-46
2022/10/07 08:02:43;;;;;;;14.07;4.68;;;12.90;81.70;;;;;;5053333;28;20040;-46
2022/10/07 08:05:09;;;;;;;15.93;4.13;;;13.00;80.80;;;;;;5053500;28;20527;-45
2022/10/07 08:07:37;;;;;;;16.13;3.75;;;13.20;81.50;;;;;;5053778;28;20072;-46
2022/10/07 08:10:04;;;;;;;14.23;4.10;;;13.30;80.70;;;;;;5030748;28;20036;-48
2022/10/07 08:12:31;;;;;;;10.35;4.00;;;13.30;80.50;;;;;;5031277;28;20075;-46
2022/10/07 08:14:58;;;;;;;13.82;4.13;;;13.40;81.20;;;;;;5032775;28;20056;-49
2022/10/07 08:17:25;;;;;;;17.08;4.38;;;13.50;80.90;;;;;;5051576;28;20044;-49
2022/10/07 08:19:55;;;;;;;17.75;4.07;;;13.50;80.70;;;;;;5053971;28;20033;-45
2022/10/07 08:22:21;;;;;;;17.50;5.95;;;13.60;80.90;;;;;;5053633;28;20025;-46
2022/10/07 08:24:48;;;;;;;14.80;4.10;;;13.80;80.20;;;;;;5051929;28;20163;-49
2022/10/07 08:27:15;;;;;;;13.98;4.68;;;13.90;80.10;;;;;;5049149;28;20072;-48
2022/10/07 08:29:43;;;;;;;15.18;4.28;;;13.90;80.20;;;;;;5032181;28;20029;-46
2022/10/07 08:32:10;;;;;;;16.50;4.03;;;13.90;80.00;;;;;;5050455;28;20033;-48
2022/10/07 08:34:38;;;;;;;13.60;4.45;;;14.20;79.70;;;;;;5043418;28;20455;-46
2022/10/07 08:37:06;;;;;;;17.15;5.38;;;14.20;80.10;;;;;;5028162;28;20037;-50
2022/10/07 08:39:35;;;;;;;12.32;4.88;;;14.40;79.40;;;;;;5032298;28;20038;-48
2022/10/07 08:42:33;;;;;;;9.65;4.63;;;14.40;79.40;;;;;;5032907;28;20134;-50
2022/10/07 08:45:02;;;;;;;12.23;4.97;;;14.60;79.50;;;;;;5033412;28;20041;-48
2022/10/07 08:47:40;;;;;;;15.10;4.53;;;14.80;79.30;;;;;;5027782;28;20373;-47
2022/10/07 08:50:12;;;;;;;11.10;3.75;;;14.90;78.50;;;;;;5028377;28;20029;-46
2022/10/07 08:52:58;;;;;;;12.27;4.53;;;14.90;78.70;;;;;;5032633;28;20081;-48
2022/10/07 08:55:54;;;;;;;16.42;5.10;;;15.00;78.80;;;;;;5031827;28;20022;-48
2022/10/07 08:58:50;;;;;;;14.70;5.18;;;14.90;78.40;;;;;;5030054;28;20026;-48
2022/10/07 09:01:48;;;;;;;12.57;3.75;;;15.00;78.50;;;;;;5046191;28;20033;-47
2022/10/07 09:04:36;;;;;;;14.88;4.28;;;15.10;78.60;;;;;;5029817;28;20529;-46
2022/10/07 09:07:30;;;;;;;15.25;4.65;;;15.20;77.70;;;;;;5032046;28;20077;-49
2022/10/07 09:10:14;;;;;;;15.68;4.30;;;15.30;78.20;;;;;;5029168;28;20044;-49
2022/10/07 09:13:04;;;;;;;15.25;4.53;;;15.40;77.90;;;;;;5031511;28;20359;-47
2022/10/07 09:15:55;;;;;;;14.15;4.85;;;15.60;77.10;;;;;;5029654;28;20038;-48
2022/10/07 09:18:52;;;;;;;14.23;4.43;;;15.50;76.90;;;;;;5030176;28;20462;-49
2022/10/07 09:21:48;;;;;;;15.25;4.20;;;15.70;77.10;;;;;;5029894;28;20036;-46
2022/10/07 09:24:33;;;;;;;19.17;5.45;;;15.90;76.90;;;;;;5030044;28;20497;-47
2022/10/07 09:27:06;;;;;;;13.82;4.50;;;15.90;76.50;;;;;;5032602;28;20076;-46
2022/10/07 09:29:32;;;;;;;17.83;4.43;;;15.80;76.90;;;;;;5030793;28;20032;-50
2022/10/07 09:31:58;;;;;;;15.38;3.90;;;15.80;76.40;;;;;;5029177;28;20068;-50
2022/10/07 09:34:28;;;;;;;14.10;4.70;;;15.80;76.20;;;;;;5034006;28;20392;-47
2022/10/07 09:37:12;;;;;;;17.25;4.18;;;15.80;76.20;;;;;;5032333;28;20513;-46
2022/10/07 09:39:40;;;;;;;12.48;4.47;;;15.80;76.70;;;;;;5051200;28;20063;-50
2022/10/07 09:42:23;;;;;;;17.85;4.68;;;15.80;77.10;;;;;;5051645;28;20128;-47
2022/10/07 09:44:56;;;;;;;13.95;3.50;;;15.90;76.20;;;;;;5034557;28;20087;-47
2022/10/07 09:47:29;;;;;;;14.80;4.10;;;16.00;76.20;;;;;;5034714;28;20553;-48
2022/10/07 09:49:58;;;;;;;14.80;4.97;;;16.00;76.00;;;;;;5048995;28;20040;-50
2022/10/07 09:52:31;;;;;;;10.05;3.47;;;16.10;76.60;;;;;;5051134;28;20396;-45
2022/10/07 09:55:38;;;;;;;12.65;3.28;;;16.10;75.70;;;;;;5051452;28;20029;-45
2022/10/07 09:58:31;;;;;;;14.10;4.28;;;16.20;75.50;;;;;;5047232;28;20037;-45
2022/10/07 10:00:59;;;;;;;14.32;3.80;;;16.20;75.40;;;;;;5052377;28;20116;-49
2022/10/07 10:03:44;;;;;;;16.20;3.92;;;16.40;75.60;;;;;;5052259;28;20136;-46
2022/10/07 10:06:11;;;;;;;22.55;4.00;;;16.40;75.10;;;;;;5054991;28;20383;-49
2022/10/07 10:08:41;;;;;;;16.60;4.30;;;16.50;75.60;;;;;;5054864;28;20025;-46
2022/10/07 10:11:29;;;;;;;20.90;4.68;;;16.40;75.20;;;;;;5056024;28;20346;-46
2022/10/07 10:13:55;;;;;;;14.45;3.97;;;16.50;75.20;;;;;;5034119;28;20131;-48
2022/10/07 10:16:45;;;;;;;14.73;4.40;;;16.50;74.70;;;;;;5035834;28;20022;-45
2022/10/07 10:19:26;;;;;;;16.85;4.60;;;16.70;75.10;;;;;;5044712;28;20462;-45
2022/10/07 10:21:55;;;;;;;13.30;3.33;;;16.70;74.80;;;;;;5054730;28;20041;-50
2022/10/07 10:27:16;;;;;;;12.38;4.03;;;16.60;75.20;;;;;;5055903;28;20063;-47
2022/10/07 10:30:03;;;;;;;12.18;3.42;;;16.80;75.00;;;;;;5053532;28;20108;-47
2022/10/07 10:32:41;;;;;;;15.80;3.83;;;16.90;75.10;;;;;;5036235;28;20031;-45
2022/10/07 10:35:14;;;;;;;15.10;4.20;;;16.80;74.30;;;;;;5053828;28;20128;-45
2022/10/07 10:37:59;;;;;;;14.50;3.17;;;16.60;74.30;;;;;;5054480;28;20029;-47
2022/10/07 10:40:55;;;;;;;15.02;3.65;;;16.80;76.00;;;;;;5050267;28;20427;-50
2022/10/07 10:43:23;;;;;;;12.02;3.28;;;16.70;74.60;;;;;;5037711;28;20068;-49
2022/10/07 10:46:24;;;;;;;17.75;4.00;;;16.70;75.60;;;;;;5054756;28;20043;-49
2022/10/07 10:49:09;;;;;;;11.85;3.95;;;16.80;75.00;;;;;;5049339;28;20064;-47
2022/10/07 10:52:13;;;;;;;18.38;3.08;;;16.70;75.00;;;;;;5042079;28;20025;-48
2022/10/07 10:55:16;;;;;;;14.98;2.97;;;16.80;75.40;;;;;;5054386;28;20033;-45
2022/10/07 10:58:11;;;;;;;10.65;3.08;;;17.00;75.50;;;;;;5054250;28;20025;-49
2022/10/07 11:01:27;;;;;;;13.63;3.33;;;17.10;73.60;;;;;;5051846;28;20037;-46
2022/10/07 11:04:21;;;;;;;13.07;3.28;;;17.10;72.60;;;;;;5038220;28;20056;-49
2022/10/07 11:07:03;;;;;;;10.00;3.17;;;17.10;73.50;;;;;;5036091;28;20025;-47
2022/10/07 11:09:32;;;;;;;16.25;3.63;;;17.10;74.60;;;;;;5049029;28;20032;-46
2022/10/07 11:12:04;;;;;;;13.52;2.72;;;17.40;73.30;;;;;;5051785;28;20021;-50
2022/10/07 11:14:35;;;;;;;15.07;3.78;;;17.40;72.50;;;;;;5034290;28;20420;-48
2022/10/07 11:17:05;;;;;;;12.40;3.03;;;17.40;72.50;;;;;;5035464;28;20082;-44
2022/10/07 11:19:42;;;;;;;13.45;3.75;;;17.40;73.00;;;;;;5053200;28;20029;-47
2022/10/07 11:22:16;;;;;;;8.38;2.92;;;17.40;74.10;;;;;;5041003;28;20435;-49
2022/10/07 11:25:06;;;;;;;11.27;2.88;;;17.60;73.70;;;;;;5034422;28;20025;-49
2022/10/07 11:27:34;;;;;;;12.98;3.70;;;17.80;72.30;;;;;;5024191;28;20024;-46
2022/10/07 11:30:16;;;;;;;16.30;3.63;;;17.70;71.30;;;;;;5051115;28;20032;-46
2022/10/07 11:33:23;;;;;;;9.82;3.08;;;17.40;71.00;;;;;;5054157;28;20029;-50
2022/10/07 11:35:58;;;;;;;13.88;2.97;;;17.10;71.90;;;;;;4993170;28;20056;-45
2022/10/07 11:38:32;;;;;;;8.93;2.75;;;17.10;73.30;;;;;;5033647;28;20183;-50
2022/10/07 11:41:06;;;;;;;11.32;2.95;;;17.20;73.70;;;;;;5033194;28;20446;-51
2022/10/07 11:43:44;;;;;;;10.32;2.83;;;17.20;73.00;;;;;;5029898;28;20026;-48
2022/10/07 11:46:34;;;;;;;14.00;3.15;;;17.30;72.90;;;;;;5034407;28;20104;-46
2022/10/07 11:49:39;;;;;;;10.35;3.20;;;17.40;72.80;;;;;;5033655;28;20029;-46
2022/10/07 11:52:15;;;;;;;14.85;3.40;;;17.30;72.70;;;;;;5031575;28;20033;-45
2022/10/07 11:54:51;;;;;;;12.23;3.10;;;17.20;72.40;;;;;;5034264;28;20129;-49
2022/10/07 11:57:23;;;;;;;11.38;2.85;;;17.30;73.30;;;;;;5034306;28;20045;-44
2022/10/07 12:00:00;;;;;;;11.50;3.72;;;17.40;73.50;;;;;;5032884;28;20171;-47
2022/10/07 12:02:26;;;;;;;7.50;3.47;;;17.40;73.10;;;;;;5034006;28;20026;-48
2022/10/07 12:04:56;;;;;;;12.43;3.15;;;17.40;73.20;;;;;;5029777;28;20021;-47
2022/10/07 12:07:43;;;;;;;12.10;3.15;;;17.40;73.00;;;;;;5032279;28;20034;-45
2022/10/07 12:10:32;;;;;;;10.25;3.72;;;17.40;73.30;;;;;;5031753;28;20067;-48
2022/10/07 12:13:12;;;;;;;10.65;2.33;;;17.40;73.00;;;;;;5033723;28;20036;-46
2022/10/07 12:15:43;;;;;;;13.18;3.40;;;17.40;72.10;;;;;;5032689;28;20346;-50
2022/10/07 12:18:14;;;;;;;11.10;3.17;;;17.60;71.90;;;;;;5031243;28;20048;-46
2022/10/07 12:21:00;;;;;;;11.35;3.40;;;17.50;71.60;;;;;;5031621;28;20087;-47
2022/10/07 12:23:34;;;;;;;8.05;2.25;;;17.50;71.40;;;;;;5033805;28;20032;-46
2022/10/07 12:26:25;;;;;;;11.52;3.00;;;17.60;71.50;;;;;;5032215;28;20026;-50
2022/10/07 12:28:54;;;;;;;12.13;2.65;;;17.50;71.40;;;;;;5011010;28;20041;-49
2022/10/07 12:31:32;;;;;;;12.25;2.65;;;17.40;72.60;;;;;;5014213;28;20072;-48
2022/10/07 12:34:03;;;;;;;10.63;2.30;;;17.50;72.00;;;;;;5013290;28;20036;-46
2022/10/07 12:36:31;;;;;;;10.32;3.22;;;17.40;71.50;;;;;;5031298;28;20315;-47
2022/10/07 12:38:59;;;;;;;7.90;2.15;;;17.50;72.20;;;;;;5031840;28;20520;-47
2022/10/07 12:41:47;;;;;;;10.50;2.28;;;17.50;71.90;;;;;;5048375;28;20041;-46
2022/10/07 12:44:35;;;;;;;12.32;2.75;;;17.40;71.90;;;;;;5031091;28;20041;-47
2022/10/07 12:47:09;;;;;;;11.18;2.45;;;17.30;72.60;;;;;;5031481;28;20040;-45
2022/10/07 12:50:01;;;;;;;16.33;2.90;;;17.30;71.90;;;;;;5030448;28;20055;-45
2022/10/07 12:52:39;;;;;;;9.60;3.25;;;17.10;72.30;;;;;;5030860;28;20029;-49
2022/10/07 12:55:26;;;;;;;7.93;2.45;;;17.20;73.90;;;;;;5031301;28;20366;-46
2022/10/07 12:59:45;;;;;;;11.80;2.65;;;17.20;71.80;;;;;;5012264;28;20029;-45
2022/10/07 13:01:11;;;;;;;10.75;2.20;;;17.20;72.40;;;;;;5030975;28;20115;-45
2022/10/07 13:03:45;;;;;;;12.35;2.58;;;17.00;72.10;;;;;;5017972;28;20040;-50
2022/10/07 13:06:57;;;;;;;7.85;2.13;;;16.90;72.00;;;;;;5032610;28;20450;-48
2022/10/07 13:10:00;;;;;;;14.45;3.50;;;17.10;73.10;;;;;;5028923;28;20057;-46
2022/10/07 13:12:36;;;;;;;12.48;3.08;;;17.20;72.10;;;;;;5026700;28;20034;-48
2022/10/07 13:15:57;;;;;;;8.88;2.63;;;17.30;72.70;;;;;;5012339;28;20026;-46
2022/10/07 13:18:47;;;;;;;12.88;3.15;;;17.10;71.30;;;;;;4931890;29;20040;-49
2022/10/07 13:21:31;;;;;;;;;;;17.10;71.20;;;;;;4932856;29;20040;-49
2022/10/07 13:23:58;;;;;;;12.27;4.53;;;17.00;71.40;;;;;;4933279;29;19941;-46
2022/10/07 13:26:25;;;;;;;9.10;2.35;;;16.90;72.50;;;;;;4933512;29;20039;-48
2022/10/07 13:28:59;;;;;;;10.13;3.22;;;16.90;73.00;;;;;;4900413;29;20043;-48